sensor_id;sensor_type;location;lat;lon;timestamp;P1;durP1;ratioP1;P2;durP2;ratioP2
13014;SDS011;6573;57.696;11.950;2022-08-19T00:01:54;18.67;;;10.33;;
13014;SDS011;6573;57.696;11.950;2022-08-19T00:04:25;15.20;;;10.63;;
13014;SDS011;6573;57.696;11.950;2022-08-19T00:06:55;22.23;;;11.47;;
13014;SDS011;6573;57.696;11.950;2022-08-19T00:09:23;18.43;;;11.03;;
13014;SDS011;6573;57.696;11.950;2022-08-19T00:11:52;19.43;;;11.63;;
13014;SDS011;6573;57.696;11.950;2022-08-19T00:14:22;23.10;;;11.37;;
13014;SDS011;6573;57.696;11.950;2022-08-19T00:16:54;19.77;;;12.20;;
13014;SDS011;6573;57.696;11.950;2022-08-19T00:19:22;19.40;;;10.80;;
13014;SDS011;6573;57.696;11.950;2022-08-19T00:21:52;22.00;;;12.83;;
13014;SDS011;6573;57.696;11.950;2022-08-19T00:24:20;14.90;;;11.00;;
13014;SDS011;6573;57.696;11.950;2022-08-19T00:26:49;16.80;;;10.87;;
13014;SDS011;6573;57.696;11.950;2022-08-19T00:29:19;18.30;;;10.73;;
13014;SDS011;6573;57.696;11.950;2022-08-19T00:31:50;21.53;;;11.00;;
13014;SDS011;6573;57.696;11.950;2022-08-19T00:34:22;20.97;;;10.60;;
13014;SDS011;6573;57.696;11.950;2022-08-19T00:36:53;18.57;;;10.50;;
13014;SDS011;6573;57.696;11.950;2022-08-19T00:39:22;17.53;;;11.17;;
13014;SDS011;6573;57.696;11.950;2022-08-19T00:41:51;17.57;;;11.23;;
13014;SDS011;6573;57.696;11.950;2022-08-19T00:44:21;19.57;;;12.40;;
13014;SDS011;6573;57.696;11.950;2022-08-19T00:46:55;16.53;;;10.53;;
13014;SDS011;6573;57.696;11.950;2022-08-19T00:49:28;19.03;;;11.10;;
13014;SDS011;6573;57.696;11.950;2022-08-19T00:51:59;16.53;;;11.10;;
13014;SDS011;6573;57.696;11.950;2022-08-19T00:54:32;20.57;;;11.20;;
13014;SDS011;6573;57.696;11.950;2022-08-19T00:57:00;20.53;;;13.77;;
13014;SDS011;6573;57.696;11.950;2022-08-19T00:59:32;17.93;;;11.70;;
13014;SDS011;6573;57.696;11.950;2022-08-19T01:02:26;18.83;;;11.73;;
13014;SDS011;6573;57.696;11.950;2022-08-19T01:04:55;18.93;;;13.27;;
13014;SDS011;6573;57.696;11.950;2022-08-19T01:07:23;20.67;;;11.70;;
13014;SDS011;6573;57.696;11.950;2022-08-19T01:09:52;20.87;;;12.67;;
13014;SDS011;6573;57.696;11.950;2022-08-19T01:12:21;18.23;;;12.30;;
13014;SDS011;6573;57.696;11.950;2022-08-19T01:14:50;18.40;;;11.73;;
13014;SDS011;6573;57.696;11.950;2022-08-19T01:17:20;20.77;;;12.53;;
13014;SDS011;6573;57.696;11.950;2022-08-19T01:19:50;17.47;;;12.40;;
13014;SDS011;6573;57.696;11.950;2022-08-19T01:22:19;19.27;;;12.33;;
13014;SDS011;6573;57.696;11.950;2022-08-19T01:24:59;18.20;;;11.80;;
13014;SDS011;6573;57.696;11.950;2022-08-19T01:27:36;19.47;;;12.33;;
13014;SDS011;6573;57.696;11.950;2022-08-19T01:30:10;19.23;;;11.93;;
13014;SDS011;6573;57.696;11.950;2022-08-19T01:32:41;21.30;;;12.57;;
13014;SDS011;6573;57.696;11.950;2022-08-19T01:35:10;21.93;;;12.43;;
13014;SDS011;6573;57.696;11.950;2022-08-19T01:37:45;21.20;;;11.50;;
13014;SDS011;6573;57.696;11.950;2022-08-19T01:40:17;23.63;;;15.67;;
13014;SDS011;6573;57.696;11.950;2022-08-19T01:42:46;21.40;;;15.70;;
13014;SDS011;6573;57.696;11.950;2022-08-19T01:45:15;22.33;;;16.03;;
13014;SDS011;6573;57.696;11.950;2022-08-19T01:47:45;21.03;;;14.67;;
13014;SDS011;6573;57.696;11.950;2022-08-19T01:50:26;18.43;;;13.50;;
13014;SDS011;6573;57.696;11.950;2022-08-19T01:52:56;18.37;;;12.93;;
13014;SDS011;6573;57.696;11.950;2022-08-19T01:55:32;20.97;;;12.87;;
13014;SDS011;6573;57.696;11.950;2022-08-19T01:58:07;21.50;;;12.90;;
13014;SDS011;6573;57.696;11.950;2022-08-19T02:00:40;19.03;;;12.57;;
13014;SDS011;6573;57.696;11.950;2022-08-19T02:03:09;21.47;;;15.30;;
13014;SDS011;6573;57.696;11.950;2022-08-19T02:05:38;23.93;;;13.37;;
13014;SDS011;6573;57.696;11.950;2022-08-19T02:08:08;26.53;;;14.03;;
13014;SDS011;6573;57.696;11.950;2022-08-19T02:10:39;26.30;;;13.50;;
13014;SDS011;6573;57.696;11.950;2022-08-19T02:13:08;25.87;;;15.13;;
13014;SDS011;6573;57.696;11.950;2022-08-19T02:15:36;24.93;;;14.20;;
13014;SDS011;6573;57.696;11.950;2022-08-19T02:18:08;29.17;;;14.03;;
13014;SDS011;6573;57.696;11.950;2022-08-19T02:20:37;25.17;;;12.93;;
13014;SDS011;6573;57.696;11.950;2022-08-19T02:23:08;26.67;;;13.27;;
13014;SDS011;6573;57.696;11.950;2022-08-19T02:25:42;24.90;;;13.37;;
13014;SDS011;6573;57.696;11.950;2022-08-19T02:28:11;26.57;;;13.50;;
13014;SDS011;6573;57.696;11.950;2022-08-19T02:30:44;20.63;;;13.10;;
13014;SDS011;6573;57.696;11.950;2022-08-19T02:33:16;21.80;;;13.43;;
13014;SDS011;6573;57.696;11.950;2022-08-19T02:35:45;21.47;;;14.27;;
13014;SDS011;6573;57.696;11.950;2022-08-19T02:38:15;19.87;;;13.00;;
13014;SDS011;6573;57.696;11.950;2022-08-19T02:40:52;21.20;;;13.00;;
13014;SDS011;6573;57.696;11.950;2022-08-19T02:43:22;21.10;;;12.93;;
13014;SDS011;6573;57.696;11.950;2022-08-19T02:45:52;22.83;;;13.20;;
13014;SDS011;6573;57.696;11.950;2022-08-19T02:48:22;23.17;;;12.67;;
13014;SDS011;6573;57.696;11.950;2022-08-19T02:50:52;22.33;;;11.57;;
13014;SDS011;6573;57.696;11.950;2022-08-19T02:53:26;22.73;;;11.80;;
13014;SDS011;6573;57.696;11.950;2022-08-19T02:55:55;21.60;;;10.97;;
13014;SDS011;6573;57.696;11.950;2022-08-19T02:58:23;20.53;;;12.00;;
13014;SDS011;6573;57.696;11.950;2022-08-19T03:00:53;21.63;;;11.00;;
13014;SDS011;6573;57.696;11.950;2022-08-19T03:03:23;16.90;;;10.40;;
13014;SDS011;6573;57.696;11.950;2022-08-19T03:05:51;17.80;;;10.97;;
13014;SDS011;6573;57.696;11.950;2022-08-19T03:08:31;20.53;;;10.20;;
13014;SDS011;6573;57.696;11.950;2022-08-19T03:10:59;23.57;;;11.70;;
13014;SDS011;6573;57.696;11.950;2022-08-19T03:13:28;19.13;;;10.27;;
13014;SDS011;6573;57.696;11.950;2022-08-19T03:15:56;18.53;;;10.07;;
13014;SDS011;6573;57.696;11.950;2022-08-19T03:18:25;18.17;;;9.53;;
13014;SDS011;6573;57.696;11.950;2022-08-19T03:20:53;17.60;;;9.50;;
13014;SDS011;6573;57.696;11.950;2022-08-19T03:23:22;18.10;;;9.57;;
13014;SDS011;6573;57.696;11.950;2022-08-19T03:25:53;15.57;;;9.67;;
13014;SDS011;6573;57.696;11.950;2022-08-19T03:28:40;18.43;;;10.77;;
13014;SDS011;6573;57.696;11.950;2022-08-19T03:31:18;16.03;;;9.93;;
13014;SDS011;6573;57.696;11.950;2022-08-19T03:34:09;18.97;;;10.10;;
13014;SDS011;6573;57.696;11.950;2022-08-19T03:36:39;19.77;;;9.77;;
13014;SDS011;6573;57.696;11.950;2022-08-19T03:39:07;18.07;;;10.23;;
13014;SDS011;6573;57.696;11.950;2022-08-19T03:41:39;13.97;;;9.57;;
13014;SDS011;6573;57.696;11.950;2022-08-19T03:44:12;16.10;;;10.30;;
13014;SDS011;6573;57.696;11.950;2022-08-19T03:46:44;18.50;;;10.17;;
13014;SDS011;6573;57.696;11.950;2022-08-19T03:49:14;20.83;;;10.40;;
13014;SDS011;6573;57.696;11.950;2022-08-19T03:51:45;17.27;;;12.07;;
13014;SDS011;6573;57.696;11.950;2022-08-19T03:54:18;17.57;;;12.93;;
13014;SDS011;6573;57.696;11.950;2022-08-19T03:56:49;19.43;;;11.33;;
13014;SDS011;6573;57.696;11.950;2022-08-19T03:59:19;21.40;;;11.37;;
13014;SDS011;6573;57.696;11.950;2022-08-19T04:01:51;17.30;;;11.93;;
13014;SDS011;6573;57.696;11.950;2022-08-19T04:04:20;20.30;;;13.07;;
13014;SDS011;6573;57.696;11.950;2022-08-19T04:06:49;18.50;;;11.33;;
13014;SDS011;6573;57.696;11.950;2022-08-19T04:09:18;18.83;;;11.73;;
13014;SDS011;6573;57.696;11.950;2022-08-19T04:11:50;17.97;;;11.30;;
13014;SDS011;6573;57.696;11.950;2022-08-19T04:14:22;18.83;;;12.33;;
13014;SDS011;6573;57.696;11.950;2022-08-19T04:16:52;15.70;;;11.57;;
13014;SDS011;6573;57.696;11.950;2022-08-19T04:19:21;19.43;;;11.83;;
13014;SDS011;6573;57.696;11.950;2022-08-19T04:21:53;19.07;;;13.47;;
13014;SDS011;6573;57.696;11.950;2022-08-19T04:24:22;18.23;;;11.03;;
13014;SDS011;6573;57.696;11.950;2022-08-19T04:26:52;22.63;;;12.63;;
13014;SDS011;6573;57.696;11.950;2022-08-19T04:29:21;21.37;;;13.47;;
13014;SDS011;6573;57.696;11.950;2022-08-19T04:31:54;21.30;;;13.17;;
13014;SDS011;6573;57.696;11.950;2022-08-19T04:34:24;23.67;;;13.70;;
13014;SDS011;6573;57.696;11.950;2022-08-19T04:36:55;20.93;;;13.67;;
13014;SDS011;6573;57.696;11.950;2022-08-19T04:39:28;23.67;;;16.87;;
13014;SDS011;6573;57.696;11.950;2022-08-19T04:42:13;21.20;;;14.70;;
13014;SDS011;6573;57.696;11.950;2022-08-19T04:45:00;23.40;;;15.10;;
13014;SDS011;6573;57.696;11.950;2022-08-19T04:47:34;24.70;;;14.97;;
13014;SDS011;6573;57.696;11.950;2022-08-19T04:50:23;24.77;;;16.07;;
13014;SDS011;6573;57.696;11.950;2022-08-19T04:52:51;25.67;;;18.23;;
13014;SDS011;6573;57.696;11.950;2022-08-19T04:55:20;28.77;;;16.73;;
13014;SDS011;6573;57.696;11.950;2022-08-19T04:57:50;27.73;;;15.97;;
13014;SDS011;6573;57.696;11.950;2022-08-19T05:00:18;22.20;;;16.50;;
13014;SDS011;6573;57.696;11.950;2022-08-19T05:02:47;22.40;;;15.90;;
13014;SDS011;6573;57.696;11.950;2022-08-19T05:05:15;25.20;;;16.40;;
13014;SDS011;6573;57.696;11.950;2022-08-19T05:07:45;27.63;;;15.60;;
13014;SDS011;6573;57.696;11.950;2022-08-19T05:10:13;26.63;;;19.57;;
13014;SDS011;6573;57.696;11.950;2022-08-19T05:12:41;27.00;;;16.63;;
13014;SDS011;6573;57.696;11.950;2022-08-19T05:15:12;27.47;;;18.00;;
13014;SDS011;6573;57.696;11.950;2022-08-19T05:17:41;30.57;;;17.10;;
13014;SDS011;6573;57.696;11.950;2022-08-19T05:20:32;28.53;;;18.53;;
13014;SDS011;6573;57.696;11.950;2022-08-19T05:23:17;26.03;;;15.60;;
13014;SDS011;6573;57.696;11.950;2022-08-19T05:25:48;28.43;;;15.83;;
13014;SDS011;6573;57.696;11.950;2022-08-19T05:28:18;25.13;;;16.53;;
13014;SDS011;6573;57.696;11.950;2022-08-19T05:30:48;25.97;;;15.87;;
13014;SDS011;6573;57.696;11.950;2022-08-19T05:33:17;28.63;;;15.53;;
13014;SDS011;6573;57.696;11.950;2022-08-19T05:35:46;21.13;;;15.60;;
13014;SDS011;6573;57.696;11.950;2022-08-19T05:38:15;21.03;;;14.30;;
13014;SDS011;6573;57.696;11.950;2022-08-19T05:40:43;26.30;;;14.23;;
13014;SDS011;6573;57.696;11.950;2022-08-19T05:43:16;16.77;;;13.43;;
13014;SDS011;6573;57.696;11.950;2022-08-19T05:45:44;19.00;;;13.43;;
13014;SDS011;6573;57.696;11.950;2022-08-19T05:48:14;18.13;;;14.43;;
13014;SDS011;6573;57.696;11.950;2022-08-19T05:54:26;14.80;;;12.20;;
13014;SDS011;6573;57.696;11.950;2022-08-19T05:56:54;15.67;;;12.53;;
13014;SDS011;6573;57.696;11.950;2022-08-19T05:59:22;16.50;;;12.77;;
13014;SDS011;6573;57.696;11.950;2022-08-19T06:01:51;16.73;;;12.97;;
13014;SDS011;6573;57.696;11.950;2022-08-19T06:04:22;21.90;;;13.47;;
13014;SDS011;6573;57.696;11.950;2022-08-19T06:06:51;15.77;;;12.10;;
13014;SDS011;6573;57.696;11.950;2022-08-19T06:09:20;19.00;;;12.23;;
13014;SDS011;6573;57.696;11.950;2022-08-19T06:11:50;20.10;;;12.83;;
13014;SDS011;6573;57.696;11.950;2022-08-19T06:14:22;16.83;;;12.10;;
13014;SDS011;6573;57.696;11.950;2022-08-19T06:16:53;16.03;;;14.23;;
13014;SDS011;6573;57.696;11.950;2022-08-19T06:19:23;16.93;;;11.30;;
13014;SDS011;6573;57.696;11.950;2022-08-19T06:21:52;15.07;;;11.80;;
13014;SDS011;6573;57.696;11.950;2022-08-19T06:24:21;13.90;;;11.23;;
13014;SDS011;6573;57.696;11.950;2022-08-19T06:26:52;12.97;;;10.00;;
13014;SDS011;6573;57.696;11.950;2022-08-19T06:29:27;13.00;;;10.37;;
13014;SDS011;6573;57.696;11.950;2022-08-19T06:31:57;9.93;;;8.77;;
13014;SDS011;6573;57.696;11.950;2022-08-19T06:34:28;11.10;;;8.60;;
13014;SDS011;6573;57.696;11.950;2022-08-19T06:36:58;10.33;;;7.53;;
13014;SDS011;6573;57.696;11.950;2022-08-19T06:39:30;10.40;;;8.20;;
13014;SDS011;6573;57.696;11.950;2022-08-19T06:42:01;9.57;;;7.83;;
13014;SDS011;6573;57.696;11.950;2022-08-19T06:44:35;9.47;;;7.97;;
13014;SDS011;6573;57.696;11.950;2022-08-19T06:47:10;11.37;;;8.90;;
13014;SDS011;6573;57.696;11.950;2022-08-19T06:49:54;10.03;;;7.97;;
13014;SDS011;6573;57.696;11.950;2022-08-19T06:52:26;13.33;;;7.97;;
13014;SDS011;6573;57.696;11.950;2022-08-19T06:54:55;8.53;;;7.63;;
13014;SDS011;6573;57.696;11.950;2022-08-19T06:57:25;10.00;;;7.60;;
13014;SDS011;6573;57.696;11.950;2022-08-19T06:59:54;9.67;;;8.73;;
13014;SDS011;6573;57.696;11.950;2022-08-19T07:02:23;10.07;;;8.17;;
13014;SDS011;6573;57.696;11.950;2022-08-19T07:04:54;11.60;;;8.47;;
13014;SDS011;6573;57.696;11.950;2022-08-19T07:07:24;10.30;;;9.10;;
13014;SDS011;6573;57.696;11.950;2022-08-19T07:09:52;10.43;;;9.43;;
13014;SDS011;6573;57.696;11.950;2022-08-19T07:12:26;10.67;;;8.27;;
13014;SDS011;6573;57.696;11.950;2022-08-19T07:14:56;12.53;;;9.70;;
13014;SDS011;6573;57.696;11.950;2022-08-19T07:17:25;12.30;;;8.90;;
13014;SDS011;6573;57.696;11.950;2022-08-19T07:19:55;10.80;;;9.70;;
13014;SDS011;6573;57.696;11.950;2022-08-19T07:22:30;14.07;;;9.87;;
13014;SDS011;6573;57.696;11.950;2022-08-19T07:25:00;11.23;;;9.50;;
13014;SDS011;6573;57.696;11.950;2022-08-19T07:27:30;13.00;;;9.43;;
13014;SDS011;6573;57.696;11.950;2022-08-19T07:29:59;12.83;;;9.40;;
13014;SDS011;6573;57.696;11.950;2022-08-19T07:32:27;15.17;;;10.27;;
13014;SDS011;6573;57.696;11.950;2022-08-19T07:34:59;10.73;;;9.37;;
13014;SDS011;6573;57.696;11.950;2022-08-19T07:37:30;10.53;;;9.53;;
13014;SDS011;6573;57.696;11.950;2022-08-19T07:39:59;10.27;;;9.17;;
13014;SDS011;6573;57.696;11.950;2022-08-19T07:42:28;10.20;;;9.20;;
13014;SDS011;6573;57.696;11.950;2022-08-19T07:44:56;10.40;;;9.43;;
13014;SDS011;6573;57.696;11.950;2022-08-19T07:47:25;10.33;;;9.23;;
13014;SDS011;6573;57.696;11.950;2022-08-19T07:50:16;10.00;;;9.10;;
13014;SDS011;6573;57.696;11.950;2022-08-19T07:52:46;9.40;;;8.53;;
13014;SDS011;6573;57.696;11.950;2022-08-19T07:55:17;10.67;;;8.80;;
13014;SDS011;6573;57.696;11.950;2022-08-19T07:58:07;13.30;;;8.10;;
13014;SDS011;6573;57.696;11.950;2022-08-19T08:00:35;10.30;;;8.47;;
13014;SDS011;6573;57.696;11.950;2022-08-19T08:03:04;9.70;;;8.90;;
13014;SDS011;6573;57.696;11.950;2022-08-19T08:05:34;9.93;;;9.03;;
13014;SDS011;6573;57.696;11.950;2022-08-19T08:08:20;11.40;;;8.77;;
13014;SDS011;6573;57.696;11.950;2022-08-19T08:11:14;9.70;;;8.67;;
13014;SDS011;6573;57.696;11.950;2022-08-19T08:13:45;10.67;;;9.43;;
13014;SDS011;6573;57.696;11.950;2022-08-19T08:16:30;13.17;;;9.27;;
13014;SDS011;6573;57.696;11.950;2022-08-19T08:19:00;12.73;;;9.93;;
13014;SDS011;6573;57.696;11.950;2022-08-19T08:21:34;10.53;;;9.07;;
13014;SDS011;6573;57.696;11.950;2022-08-19T08:24:02;13.50;;;8.57;;
13014;SDS011;6573;57.696;11.950;2022-08-19T08:26:31;10.37;;;8.83;;
13014;SDS011;6573;57.696;11.950;2022-08-19T08:28:59;9.23;;;8.40;;
13014;SDS011;6573;57.696;11.950;2022-08-19T08:31:38;11.60;;;8.40;;
13014;SDS011;6573;57.696;11.950;2022-08-19T08:34:07;11.13;;;8.93;;
13014;SDS011;6573;57.696;11.950;2022-08-19T08:36:38;10.70;;;8.83;;
13014;SDS011;6573;57.696;11.950;2022-08-19T08:39:08;10.43;;;9.43;;
13014;SDS011;6573;57.696;11.950;2022-08-19T08:41:37;10.07;;;8.57;;
13014;SDS011;6573;57.696;11.950;2022-08-19T08:44:13;8.87;;;7.97;;
13014;SDS011;6573;57.696;11.950;2022-08-19T08:46:48;12.43;;;7.83;;
13014;SDS011;6573;57.696;11.950;2022-08-19T08:49:29;9.77;;;8.30;;
13014;SDS011;6573;57.696;11.950;2022-08-19T08:52:15;10.63;;;8.47;;
13014;SDS011;6573;57.696;11.950;2022-08-19T08:54:50;9.83;;;7.60;;
13014;SDS011;6573;57.696;11.950;2022-08-19T08:57:24;8.30;;;7.57;;
13014;SDS011;6573;57.696;11.950;2022-08-19T09:00:07;8.53;;;7.73;;
13014;SDS011;6573;57.696;11.950;2022-08-19T09:02:41;10.53;;;7.97;;
13014;SDS011;6573;57.696;11.950;2022-08-19T09:05:09;9.63;;;8.53;;
13014;SDS011;6573;57.696;11.950;2022-08-19T09:07:45;10.30;;;8.23;;
13014;SDS011;6573;57.696;11.950;2022-08-19T09:10:24;11.03;;;7.47;;
13014;SDS011;6573;57.696;11.950;2022-08-19T09:13:01;9.10;;;7.10;;
13014;SDS011;6573;57.696;11.950;2022-08-19T09:15:40;10.30;;;7.50;;
13014;SDS011;6573;57.696;11.950;2022-08-19T09:18:13;10.87;;;7.63;;
13014;SDS011;6573;57.696;11.950;2022-08-19T09:20:45;13.07;;;10.00;;
13014;SDS011;6573;57.696;11.950;2022-08-19T09:23:16;10.60;;;9.50;;
13014;SDS011;6573;57.696;11.950;2022-08-19T09:25:52;10.43;;;9.43;;
13014;SDS011;6573;57.696;11.950;2022-08-19T09:28:20;11.70;;;9.40;;
13014;SDS011;6573;57.696;11.950;2022-08-19T09:30:52;12.83;;;10.20;;
13014;SDS011;6573;57.696;11.950;2022-08-19T09:33:21;16.13;;;10.23;;
13014;SDS011;6573;57.696;11.950;2022-08-19T09:35:49;16.87;;;9.67;;
13014;SDS011;6573;57.696;11.950;2022-08-19T09:38:20;12.73;;;9.43;;
13014;SDS011;6573;57.696;11.950;2022-08-19T09:40:49;13.23;;;9.00;;
13014;SDS011;6573;57.696;11.950;2022-08-19T09:43:17;13.73;;;9.10;;
13014;SDS011;6573;57.696;11.950;2022-08-19T09:45:59;12.10;;;8.97;;
13014;SDS011;6573;57.696;11.950;2022-08-19T09:48:28;10.63;;;8.60;;
13014;SDS011;6573;57.696;11.950;2022-08-19T09:51:01;12.40;;;9.50;;
13014;SDS011;6573;57.696;11.950;2022-08-19T09:53:32;11.87;;;8.90;;
13014;SDS011;6573;57.696;11.950;2022-08-19T09:56:02;12.33;;;8.50;;
13014;SDS011;6573;57.696;11.950;2022-08-19T09:58:34;12.00;;;8.57;;
13014;SDS011;6573;57.696;11.950;2022-08-19T10:01:04;11.00;;;8.97;;
13014;SDS011;6573;57.696;11.950;2022-08-19T10:03:34;14.13;;;8.00;;
13014;SDS011;6573;57.696;11.950;2022-08-19T10:06:04;9.80;;;7.67;;
13014;SDS011;6573;57.696;11.950;2022-08-19T10:08:44;8.80;;;6.93;;
13014;SDS011;6573;57.696;11.950;2022-08-19T10:11:15;9.30;;;7.07;;
13014;SDS011;6573;57.696;11.950;2022-08-19T10:14:01;11.37;;;7.10;;
13014;SDS011;6573;57.696;11.950;2022-08-19T10:16:32;8.30;;;6.73;;
13014;SDS011;6573;57.696;11.950;2022-08-19T10:19:04;9.47;;;6.30;;
13014;SDS011;6573;57.696;11.950;2022-08-19T10:21:33;13.13;;;5.77;;
13014;SDS011;6573;57.696;11.950;2022-08-19T10:24:03;9.43;;;6.97;;
13014;SDS011;6573;57.696;11.950;2022-08-19T10:26:36;10.30;;;7.60;;
13014;SDS011;6573;57.696;11.950;2022-08-19T10:29:08;8.63;;;5.67;;
13014;SDS011;6573;57.696;11.950;2022-08-19T10:31:36;9.97;;;5.80;;
13014;SDS011;6573;57.696;11.950;2022-08-19T10:34:24;10.57;;;7.13;;
13014;SDS011;6573;57.696;11.950;2022-08-19T10:36:54;11.00;;;7.53;;
13014;SDS011;6573;57.696;11.950;2022-08-19T10:39:28;7.87;;;7.07;;
13014;SDS011;6573;57.696;11.950;2022-08-19T10:42:08;8.33;;;7.10;;
13014;SDS011;6573;57.696;11.950;2022-08-19T10:44:39;8.73;;;7.67;;
13014;SDS011;6573;57.696;11.950;2022-08-19T10:47:08;10.17;;;7.00;;
13014;SDS011;6573;57.696;11.950;2022-08-19T10:49:50;13.57;;;8.93;;
13014;SDS011;6573;57.696;11.950;2022-08-19T10:52:37;8.80;;;6.70;;
13014;SDS011;6573;57.696;11.950;2022-08-19T10:55:17;7.90;;;5.97;;
13014;SDS011;6573;57.696;11.950;2022-08-19T10:58:09;7.90;;;6.10;;
13014;SDS011;6573;57.696;11.950;2022-08-19T11:00:39;9.60;;;5.30;;
13014;SDS011;6573;57.696;11.950;2022-08-19T11:03:08;5.43;;;4.93;;
13014;SDS011;6573;57.696;11.950;2022-08-19T11:05:37;6.27;;;5.30;;
13014;SDS011;6573;57.696;11.950;2022-08-19T11:08:06;7.50;;;4.97;;
13014;SDS011;6573;57.696;11.950;2022-08-19T11:10:50;7.87;;;5.77;;
13014;SDS011;6573;57.696;11.950;2022-08-19T11:13:25;7.80;;;5.30;;
13014;SDS011;6573;57.696;11.950;2022-08-19T11:15:57;7.70;;;5.10;;
13014;SDS011;6573;57.696;11.950;2022-08-19T11:18:33;6.93;;;5.10;;
13014;SDS011;6573;57.696;11.950;2022-08-19T11:21:06;6.63;;;5.17;;
13014;SDS011;6573;57.696;11.950;2022-08-19T11:23:35;8.27;;;5.23;;
13014;SDS011;6573;57.696;11.950;2022-08-19T11:26:05;10.97;;;5.57;;
13014;SDS011;6573;57.696;11.950;2022-08-19T11:28:33;8.33;;;5.80;;
13014;SDS011;6573;57.696;11.950;2022-08-19T11:31:02;9.10;;;5.87;;
13014;SDS011;6573;57.696;11.950;2022-08-19T11:33:30;8.30;;;5.87;;
13014;SDS011;6573;57.696;11.950;2022-08-19T11:35:59;7.30;;;6.10;;
13014;SDS011;6573;57.696;11.950;2022-08-19T11:38:27;8.20;;;6.23;;
13014;SDS011;6573;57.696;11.950;2022-08-19T11:40:57;6.30;;;5.57;;
13014;SDS011;6573;57.696;11.950;2022-08-19T11:43:28;8.40;;;6.17;;
13014;SDS011;6573;57.696;11.950;2022-08-19T11:46:03;8.80;;;6.10;;
13014;SDS011;6573;57.696;11.950;2022-08-19T11:48:34;6.40;;;5.60;;
13014;SDS011;6573;57.696;11.950;2022-08-19T11:51:03;6.50;;;5.50;;
13014;SDS011;6573;57.696;11.950;2022-08-19T11:53:33;7.33;;;5.50;;
13014;SDS011;6573;57.696;11.950;2022-08-19T11:56:02;6.30;;;5.80;;
13014;SDS011;6573;57.696;11.950;2022-08-19T11:58:33;7.77;;;6.17;;
13014;SDS011;6573;57.696;11.950;2022-08-19T12:01:05;6.20;;;5.60;;
13014;SDS011;6573;57.696;11.950;2022-08-19T12:03:34;8.50;;;6.00;;
13014;SDS011;6573;57.696;11.950;2022-08-19T12:06:03;6.60;;;5.67;;
13014;SDS011;6573;57.696;11.950;2022-08-19T12:08:32;9.37;;;5.43;;
13014;SDS011;6573;57.696;11.950;2022-08-19T12:11:00;9.53;;;5.67;;
13014;SDS011;6573;57.696;11.950;2022-08-19T12:13:29;9.13;;;5.40;;
13014;SDS011;6573;57.696;11.950;2022-08-19T12:15:59;7.30;;;5.20;;
13014;SDS011;6573;57.696;11.950;2022-08-19T12:18:28;8.47;;;5.80;;
13014;SDS011;6573;57.696;11.950;2022-08-19T12:20:56;6.80;;;6.10;;
13014;SDS011;6573;57.696;11.950;2022-08-19T12:23:26;6.80;;;5.73;;
13014;SDS011;6573;57.696;11.950;2022-08-19T12:25:55;6.37;;;5.17;;
13014;SDS011;6573;57.696;11.950;2022-08-19T12:28:24;6.03;;;4.47;;
13014;SDS011;6573;57.696;11.950;2022-08-19T12:30:52;4.93;;;4.13;;
13014;SDS011;6573;57.696;11.950;2022-08-19T12:33:22;7.03;;;3.90;;
13014;SDS011;6573;57.696;11.950;2022-08-19T12:35:54;6.33;;;3.90;;
13014;SDS011;6573;57.696;11.950;2022-08-19T12:38:22;6.47;;;3.80;;
13014;SDS011;6573;57.696;11.950;2022-08-19T12:40:50;5.03;;;3.93;;
13014;SDS011;6573;57.696;11.950;2022-08-19T12:43:25;6.90;;;4.00;;
13014;SDS011;6573;57.696;11.950;2022-08-19T12:45:53;7.27;;;3.87;;
13014;SDS011;6573;57.696;11.950;2022-08-19T12:48:23;6.23;;;3.67;;
13014;SDS011;6573;57.696;11.950;2022-08-19T12:51:00;5.03;;;3.60;;
13014;SDS011;6573;57.696;11.950;2022-08-19T12:53:34;4.87;;;3.50;;
13014;SDS011;6573;57.696;11.950;2022-08-19T12:56:05;9.23;;;3.40;;
13014;SDS011;6573;57.696;11.950;2022-08-19T12:58:37;10.00;;;3.40;;
13014;SDS011;6573;57.696;11.950;2022-08-19T13:01:16;7.53;;;3.40;;
13014;SDS011;6573;57.696;11.950;2022-08-19T13:03:50;5.40;;;3.00;;
13014;SDS011;6573;57.696;11.950;2022-08-19T13:06:21;5.97;;;3.63;;
13014;SDS011;6573;57.696;11.950;2022-08-19T13:08:51;6.57;;;3.50;;
13014;SDS011;6573;57.696;11.950;2022-08-19T13:11:25;5.50;;;3.80;;
13014;SDS011;6573;57.696;11.950;2022-08-19T13:13:53;8.23;;;4.83;;
13014;SDS011;6573;57.696;11.950;2022-08-19T13:16:23;7.60;;;4.47;;
13014;SDS011;6573;57.696;11.950;2022-08-19T13:18:55;6.97;;;3.83;;
13014;SDS011;6573;57.696;11.950;2022-08-19T13:21:26;5.07;;;3.50;;
13014;SDS011;6573;57.696;11.950;2022-08-19T13:23:57;4.93;;;3.83;;
13014;SDS011;6573;57.696;11.950;2022-08-19T13:26:25;4.40;;;2.80;;
13014;SDS011;6573;57.696;11.950;2022-08-19T13:28:53;6.37;;;3.00;;
13014;SDS011;6573;57.696;11.950;2022-08-19T13:31:40;5.00;;;2.67;;
13014;SDS011;6573;57.696;11.950;2022-08-19T13:34:31;4.20;;;2.93;;
13014;SDS011;6573;57.696;11.950;2022-08-19T13:37:03;4.80;;;2.97;;
13014;SDS011;6573;57.696;11.950;2022-08-19T13:39:32;4.63;;;2.87;;
13014;SDS011;6573;57.696;11.950;2022-08-19T13:42:02;5.07;;;3.07;;
13014;SDS011;6573;57.696;11.950;2022-08-19T13:44:33;6.47;;;3.40;;
13014;SDS011;6573;57.696;11.950;2022-08-19T13:47:03;3.63;;;2.57;;
13014;SDS011;6573;57.696;11.950;2022-08-19T13:49:35;5.37;;;2.80;;
13014;SDS011;6573;57.696;11.950;2022-08-19T13:52:04;6.20;;;2.83;;
13014;SDS011;6573;57.696;11.950;2022-08-19T13:54:33;3.87;;;2.70;;
13014;SDS011;6573;57.696;11.950;2022-08-19T13:57:02;5.43;;;2.90;;
13014;SDS011;6573;57.696;11.950;2022-08-19T13:59:31;4.97;;;3.00;;
13014;SDS011;6573;57.696;11.950;2022-08-19T14:02:00;6.20;;;2.37;;
13014;SDS011;6573;57.696;11.950;2022-08-19T14:04:28;5.10;;;2.50;;
13014;SDS011;6573;57.696;11.950;2022-08-19T14:06:58;3.60;;;2.30;;
13014;SDS011;6573;57.696;11.950;2022-08-19T14:09:28;5.77;;;2.30;;
13014;SDS011;6573;57.696;11.950;2022-08-19T14:11:56;3.57;;;2.10;;
13014;SDS011;6573;57.696;11.950;2022-08-19T14:14:25;4.80;;;2.60;;
13014;SDS011;6573;57.696;11.950;2022-08-19T14:16:53;2.90;;;2.47;;
13014;SDS011;6573;57.696;11.950;2022-08-19T14:19:23;5.53;;;2.30;;
13014;SDS011;6573;57.696;11.950;2022-08-19T14:21:55;3.57;;;2.60;;
13014;SDS011;6573;57.696;11.950;2022-08-19T14:24:26;6.53;;;2.40;;
13014;SDS011;6573;57.696;11.950;2022-08-19T14:26:55;4.17;;;2.10;;
13014;SDS011;6573;57.696;11.950;2022-08-19T14:29:26;3.73;;;2.07;;
13014;SDS011;6573;57.696;11.950;2022-08-19T14:31:55;7.00;;;2.20;;
13014;SDS011;6573;57.696;11.950;2022-08-19T14:34:25;4.40;;;2.00;;
13014;SDS011;6573;57.696;11.950;2022-08-19T14:36:53;3.90;;;2.43;;
13014;SDS011;6573;57.696;11.950;2022-08-19T14:39:22;2.97;;;2.33;;
13014;SDS011;6573;57.696;11.950;2022-08-19T14:41:51;5.97;;;2.50;;
13014;SDS011;6573;57.696;11.950;2022-08-19T14:44:19;2.70;;;2.00;;
13014;SDS011;6573;57.696;11.950;2022-08-19T14:46:49;4.07;;;2.00;;
13014;SDS011;6573;57.696;11.950;2022-08-19T14:49:22;2.83;;;1.97;;
13014;SDS011;6573;57.696;11.950;2022-08-19T14:52:00;3.80;;;2.67;;
13014;SDS011;6573;57.696;11.950;2022-08-19T14:54:29;3.67;;;1.73;;
13014;SDS011;6573;57.696;11.950;2022-08-19T14:56:59;3.10;;;2.20;;
13014;SDS011;6573;57.696;11.950;2022-08-19T14:59:27;4.60;;;2.30;;
13014;SDS011;6573;57.696;11.950;2022-08-19T15:01:56;4.97;;;1.90;;
13014;SDS011;6573;57.696;11.950;2022-08-19T15:04:46;4.30;;;2.23;;